createdAt,value
2023-01-29T00:00:24.865Z,102.00
2023-01-29T00:01:25.571Z,103.40
2023-01-29T00:02:26.381Z,97.30
2023-01-29T00:03:27.074Z,94.70
2023-01-29T00:04:27.829Z,92.00
2023-01-29T00:05:28.807Z,101.10
2023-01-29T00:06:29.504Z,96.10
2023-01-29T00:07:30.195Z,97.20
2023-01-29T00:08:30.920Z,94.30
2023-01-29T00:09:31.982Z,96.50
2023-01-29T00:10:32.175Z,103.00
2023-01-29T00:11:32.834Z,98.20
2023-01-29T00:12:33.535Z,99.80
2023-01-29T00:13:34.243Z,97.20
2023-01-29T00:14:34.973Z,97.80
2023-01-29T00:15:35.679Z,105.50
2023-01-29T00:16:36.508Z,103.20
2023-01-29T00:17:37.191Z,95.50
2023-01-29T00:18:37.900Z,100.60
2023-01-29T00:19:38.626Z,100.50
2023-01-29T00:20:39.327Z,97.10
2023-01-29T00:21:40.077Z,98.60
2023-01-29T00:22:40.745Z,98.30
2023-01-29T00:23:41.442Z,98.30
2023-01-29T00:24:42.157Z,102.30
2023-01-29T00:25:42.880Z,96.00
2023-01-29T00:26:43.511Z,105.60
2023-01-29T00:27:44.218Z,99.90
2023-01-29T00:28:44.925Z,105.00
2023-01-29T00:29:45.937Z,101.30
2023-01-29T00:30:46.145Z,101.00
2023-01-29T00:31:47.050Z,109.60
2023-01-29T00:32:47.717Z,100.70
2023-01-29T00:33:48.460Z,102.10
2023-01-29T00:34:49.139Z,102.40
2023-01-29T00:35:49.847Z,103.30
2023-01-29T00:36:50.578Z,101.60
2023-01-29T00:37:51.281Z,97.80
2023-01-29T00:38:51.985Z,101.40
2023-01-29T00:39:52.941Z,99.80
2023-01-29T00:40:53.674Z,101.80
2023-01-29T00:41:54.337Z,97.00
2023-01-29T00:42:55.045Z,105.10
2023-01-29T00:43:55.749Z,100.30
2023-01-29T00:44:56.476Z,105.40
2023-01-29T00:45:57.176Z,100.20
2023-01-29T00:46:57.979Z,101.50
2023-01-29T00:47:58.622Z,101.50
2023-01-29T00:49:00.861Z,101.20
2023-01-29T00:50:00.157Z,102.10
2023-01-29T00:51:00.818Z,102.70
2023-01-29T00:52:01.567Z,106.10
2023-01-29T00:53:02.235Z,102.50
2023-01-29T00:54:02.954Z,109.70
2023-01-29T00:55:03.937Z,103.90
2023-01-29T00:56:04.177Z,104.10
2023-01-29T00:57:04.821Z,111.10
2023-01-29T00:58:05.529Z,101.60
2023-01-29T00:59:06.225Z,104.70
2023-01-29T01:00:06.954Z,115.50
2023-01-29T01:01:07.699Z,109.50
2023-01-29T01:02:08.444Z,100.90
2023-01-29T01:03:09.092Z,103.10
2023-01-29T01:04:09.798Z,106.30
2023-01-29T01:05:10.939Z,103.80
2023-01-29T01:06:11.156Z,103.30
2023-01-29T01:07:12.895Z,103.80
2023-01-29T01:08:12.583Z,106.40
2023-01-29T01:09:13.293Z,106.00
2023-01-29T01:10:14.802Z,108.80
2023-01-29T01:11:14.625Z,107.90
2023-01-29T01:12:15.266Z,99.90
2023-01-29T01:13:15.973Z,103.20
2023-01-29T01:14:16.691Z,113.00
2023-01-29T01:15:17.434Z,109.60
2023-01-29T01:16:18.210Z,108.40
2023-01-29T01:17:18.852Z,105.70
2023-01-29T01:18:19.571Z,111.00
2023-01-29T01:19:20.283Z,103.30
2023-01-29T01:20:21.436Z,106.30
2023-01-29T01:21:21.660Z,107.20
2023-01-29T01:22:22.373Z,103.80
2023-01-29T01:23:23.055Z,103.50
2023-01-29T01:24:23.823Z,107.30
2023-01-29T01:25:24.488Z,108.30
2023-01-29T01:26:25.204Z,105.10
2023-01-29T01:27:25.857Z,106.70
2023-01-29T01:28:26.565Z,106.50
2023-01-29T01:29:27.274Z,108.40
2023-01-29T01:30:28.442Z,112.00
2023-01-29T01:31:28.758Z,113.80
2023-01-29T01:32:29.453Z,115.00
2023-01-29T01:33:30.161Z,115.60
2023-01-29T01:34:30.873Z,109.80
2023-01-29T01:35:31.951Z,109.50
2023-01-29T01:36:32.168Z,115.20
2023-01-29T01:37:32.892Z,115.90
2023-01-29T01:38:33.599Z,108.30
2023-01-29T01:39:34.314Z,110.70
2023-01-29T01:40:35.435Z,109.10
2023-01-29T01:41:35.661Z,109.70
2023-01-29T01:42:36.340Z,110.70
2023-01-29T01:43:37.045Z,107.90
2023-01-29T01:44:37.756Z,112.00
2023-01-29T01:45:38.984Z,110.40
2023-01-29T01:46:39.141Z,110.80
2023-01-29T01:47:39.855Z,111.50
2023-01-29T01:48:40.567Z,114.40
2023-01-29T01:49:41.273Z,103.50
2023-01-29T01:50:42.439Z,118.30
2023-01-29T01:51:42.638Z,114.30
2023-01-29T01:52:43.467Z,113.20
2023-01-29T01:53:44.146Z,108.40
2023-01-29T01:54:44.851Z,113.20
2023-01-29T01:55:45.577Z,107.10
2023-01-29T01:56:46.294Z,117.80
2023-01-29T01:57:46.957Z,119.00
2023-01-29T01:58:47.665Z,112.50
2023-01-29T01:59:48.383Z,116.70
2023-01-29T02:00:49.484Z,112.20
2023-01-29T02:01:49.784Z,110.90
2023-01-29T02:02:50.455Z,111.50
2023-01-29T02:03:51.166Z,117.80
2023-01-29T02:04:51.876Z,112.10
2023-01-29T02:05:52.589Z,107.00
2023-01-29T02:06:53.300Z,113.90
2023-01-29T02:07:54.027Z,111.50
2023-01-29T02:08:54.712Z,119.80
2023-01-29T02:09:55.421Z,114.00
2023-01-29T02:10:56.436Z,121.60
2023-01-29T02:11:56.663Z,114.50
2023-01-29T02:12:57.324Z,122.30
2023-01-29T02:13:58.024Z,116.60
2023-01-29T02:14:58.740Z,116.10
2023-01-29T02:15:59.936Z,122.10
2023-01-29T02:17:00.139Z,112.20
2023-01-29T02:18:00.856Z,118.20
2023-01-29T02:19:01.554Z,118.10
2023-01-29T02:20:02.263Z,122.60
2023-01-29T02:21:03.435Z,117.10
2023-01-29T02:22:03.655Z,111.20
2023-01-29T02:23:04.376Z,116.30
2023-01-29T02:24:05.164Z,114.90
2023-01-29T02:25:05.876Z,116.30
2023-01-29T02:26:06.935Z,113.20
2023-01-29T02:27:07.167Z,117.40
2023-01-29T02:28:07.810Z,109.50
2023-01-29T02:29:08.517Z,106.90
2023-01-29T02:30:09.245Z,115.90
2023-01-29T02:31:10.044Z,109.70
2023-01-29T02:32:10.707Z,117.00
2023-01-29T02:33:11.412Z,116.90
2023-01-29T02:34:12.116Z,111.60
2023-01-29T02:35:12.841Z,114.00
2023-01-29T02:36:13.935Z,113.90
2023-01-29T02:37:14.143Z,114.00
2023-01-29T02:38:14.878Z,119.20
2023-01-29T02:39:15.559Z,118.10
2023-01-29T02:40:16.557Z,116.10
2023-01-29T02:41:16.934Z,114.40
2023-01-29T02:42:17.668Z,113.70
2023-01-29T02:43:18.309Z,123.60
2023-01-29T02:44:19.024Z,111.30
2023-01-29T02:45:19.734Z,113.90
2023-01-29T02:46:20.944Z,117.10
2023-01-29T02:47:21.150Z,111.90
2023-01-29T02:48:21.852Z,114.00
2023-01-29T02:49:22.562Z,114.10
2023-01-29T02:50:23.280Z,112.00
2023-01-29T02:51:24.435Z,112.20
2023-01-29T02:52:24.641Z,120.50
2023-01-29T02:53:25.366Z,117.10
2023-01-29T02:54:26.053Z,117.40
2023-01-29T02:55:26.763Z,113.40
2023-01-29T02:56:27.933Z,118.40
2023-01-29T02:57:28.174Z,120.20
2023-01-29T02:58:28.840Z,118.70
2023-01-29T02:59:29.550Z,122.40
2023-01-29T03:00:30.265Z,119.50
2023-01-29T03:01:31.451Z,118.80
2023-01-29T03:02:31.700Z,116.70
2023-01-29T03:03:32.391Z,115.40
2023-01-29T03:04:33.089Z,120.00
2023-01-29T03:05:33.836Z,114.00
2023-01-29T03:06:34.513Z,125.50
2023-01-29T03:07:35.221Z,117.30
2023-01-29T03:08:35.953Z,117.00
2023-01-29T03:09:36.640Z,117.50
2023-01-29T03:10:37.340Z,122.20
2023-01-29T03:11:38.057Z,118.60
2023-01-29T03:12:38.792Z,122.70
2023-01-29T03:13:39.443Z,124.30
2023-01-29T03:14:40.148Z,120.20
2023-01-29T03:15:40.854Z,125.60
2023-01-29T03:16:41.607Z,120.70
2023-01-29T03:17:42.279Z,123.20
2023-01-29T03:18:42.984Z,123.00
2023-01-29T03:19:43.722Z,119.90
2023-01-29T03:20:44.435Z,122.00
2023-01-29T03:21:45.150Z,128.50
2023-01-29T03:22:45.858Z,123.00
2023-01-29T03:23:46.587Z,125.40
2023-01-29T03:24:47.279Z,123.10
2023-01-29T03:25:47.980Z,120.90
2023-01-29T03:26:48.696Z,123.90
2023-01-29T03:27:49.420Z,124.60
2023-01-29T03:28:50.046Z,128.80
2023-01-29T03:29:50.755Z,128.60
2023-01-29T03:30:51.487Z,125.10
2023-01-29T03:31:52.454Z,125.60
2023-01-29T03:32:53.150Z,128.20
2023-01-29T03:33:53.851Z,120.10
2023-01-29T03:34:54.559Z,127.20
2023-01-29T03:35:55.266Z,126.50
2023-01-29T03:36:56.433Z,123.60
2023-01-29T03:37:56.641Z,121.50
2023-01-29T03:38:57.369Z,130.60
2023-01-29T03:39:58.055Z,125.40
2023-01-29T03:40:58.768Z,124.40
2023-01-29T03:41:59.480Z,125.90
2023-01-29T03:43:00.209Z,125.70
2023-01-29T03:44:00.898Z,133.60
2023-01-29T03:45:01.630Z,136.10
2023-01-29T03:46:02.359Z,129.30
2023-01-29T03:47:03.053Z,132.30
2023-01-29T03:48:03.797Z,131.80
2023-01-29T03:49:04.478Z,130.40
2023-01-29T03:50:05.197Z,127.80
2023-01-29T03:51:05.895Z,138.20
2023-01-29T03:52:06.612Z,132.60
2023-01-29T03:53:07.323Z,140.40
2023-01-29T03:54:08.027Z,141.00
2023-01-29T03:55:08.734Z,150.60
2023-01-29T03:56:09.445Z,133.00
2023-01-29T03:57:10.164Z,139.00
2023-01-29T03:58:10.885Z,139.30
2023-01-29T03:59:11.534Z,138.60
2023-01-29T04:00:12.242Z,137.60
2023-01-29T04:01:12.969Z,137.30
2023-01-29T04:02:13.682Z,138.40
2023-01-29T04:03:14.391Z,147.60
2023-01-29T04:04:15.224Z,145.20
2023-01-29T04:05:15.905Z,143.80
2023-01-29T04:06:16.615Z,143.10
2023-01-29T04:07:17.433Z,140.80
2023-01-29T04:08:18.138Z,151.30
2023-01-29T04:09:18.861Z,147.00
2023-01-29T04:10:19.562Z,144.50
2023-01-29T04:11:20.266Z,141.20
2023-01-29T04:12:20.981Z,146.00
2023-01-29T04:13:21.703Z,143.10
2023-01-29T04:14:22.357Z,150.50
2023-01-29T04:15:23.065Z,146.70
2023-01-29T04:16:23.790Z,144.50
2023-01-29T04:17:24.486Z,145.00
2023-01-29T04:18:25.200Z,145.20
2023-01-29T04:19:25.906Z,145.00
2023-01-29T04:20:26.617Z,143.00
2023-01-29T04:21:27.342Z,145.70
2023-01-29T04:22:28.437Z,144.50
2023-01-29T04:23:28.651Z,139.40
2023-01-29T04:24:29.392Z,144.60
2023-01-29T04:25:30.058Z,140.60
2023-01-29T04:26:30.763Z,138.60
2023-01-29T04:27:31.953Z,133.20
2023-01-29T04:28:32.160Z,142.80
2023-01-29T04:29:32.791Z,136.00
2023-01-29T04:30:33.599Z,135.40
2023-01-29T04:31:34.356Z,138.60
2023-01-29T04:32:35.037Z,133.00
2023-01-29T04:33:35.743Z,145.60
2023-01-29T04:34:36.448Z,140.80
2023-01-29T04:35:37.162Z,142.80
2023-01-29T04:36:37.865Z,137.90
2023-01-29T04:37:38.584Z,141.30
2023-01-29T04:38:39.283Z,135.90
2023-01-29T04:39:39.994Z,133.70
2023-01-29T04:40:40.702Z,138.50
2023-01-29T04:41:41.408Z,134.40
2023-01-29T04:42:42.430Z,135.50
2023-01-29T04:43:42.658Z,130.60
2023-01-29T04:44:43.338Z,136.00
2023-01-29T04:45:44.066Z,135.40
2023-01-29T04:46:44.780Z,135.90
2023-01-29T04:47:45.996Z,130.90
2023-01-29T04:48:46.156Z,133.20
2023-01-29T04:49:46.868Z,131.70
2023-01-29T04:50:47.567Z,129.00
2023-01-29T04:51:48.271Z,138.40
2023-01-29T04:52:48.987Z,132.20
2023-01-29T04:53:49.691Z,136.50
2023-01-29T04:54:50.395Z,135.20
2023-01-29T04:55:51.101Z,133.00
2023-01-29T04:56:51.809Z,130.80
2023-01-29T04:57:52.521Z,132.60
2023-01-29T04:58:53.246Z,128.30
2023-01-29T04:59:53.943Z,132.30
2023-01-29T05:00:54.654Z,135.60
2023-01-29T05:01:55.461Z,127.50
2023-01-29T05:02:56.463Z,127.90
2023-01-29T05:03:56.653Z,130.10
2023-01-29T05:04:57.357Z,131.50
2023-01-29T05:05:58.071Z,127.10
2023-01-29T05:06:58.773Z,130.00
2023-01-29T05:07:59.931Z,133.70
2023-01-29T05:09:00.136Z,137.50
2023-01-29T05:10:00.851Z,135.20
2023-01-29T05:11:01.582Z,124.00
2023-01-29T05:12:02.270Z,133.80
2023-01-29T05:13:02.991Z,131.40
2023-01-29T05:14:03.728Z,123.80
2023-01-29T05:15:04.369Z,126.40
2023-01-29T05:16:05.211Z,129.70
2023-01-29T05:17:05.879Z,124.90
2023-01-29T05:18:06.932Z,127.20
2023-01-29T05:19:07.148Z,126.10
2023-01-29T05:20:07.853Z,123.00
2023-01-29T05:21:08.691Z,133.90
2023-01-29T05:22:09.401Z,127.50
2023-01-29T05:23:10.438Z,123.80
2023-01-29T05:24:10.704Z,128.10
2023-01-29T05:25:11.361Z,129.30
2023-01-29T05:26:12.075Z,125.20
2023-01-29T05:27:12.778Z,123.70
2023-01-29T05:28:13.941Z,121.70
2023-01-29T05:29:14.163Z,125.30
2023-01-29T05:30:15.261Z,129.40
2023-01-29T05:31:15.717Z,124.20
2023-01-29T05:32:16.401Z,125.80
2023-01-29T05:33:17.113Z,134.60
2023-01-29T05:34:17.826Z,129.40
2023-01-29T05:35:18.530Z,128.00
2023-01-29T05:36:19.240Z,130.00
2023-01-29T05:37:19.947Z,123.80
2023-01-29T05:38:20.931Z,127.30
2023-01-29T05:39:21.642Z,125.20
2023-01-29T05:40:22.348Z,127.40
2023-01-29T05:41:23.066Z,128.90
2023-01-29T05:42:23.771Z,124.30
2023-01-29T05:43:24.955Z,129.80
2023-01-29T05:44:25.157Z,134.20
2023-01-29T05:45:25.827Z,134.20
2023-01-29T05:46:26.556Z,128.90
2023-01-29T05:47:27.243Z,124.90
2023-01-29T05:48:28.435Z,128.70
2023-01-29T05:49:28.644Z,132.10
2023-01-29T05:50:29.358Z,127.40
2023-01-29T05:51:30.060Z,131.20
2023-01-29T05:52:30.782Z,131.00
2023-01-29T05:53:31.485Z,131.40
2023-01-29T05:54:32.210Z,122.90
2023-01-29T05:55:32.913Z,129.40
2023-01-29T05:56:33.629Z,127.40
2023-01-29T05:57:34.331Z,120.90
2023-01-29T05:58:35.046Z,113.90
2023-01-29T05:59:35.775Z,117.50
2023-01-29T06:00:36.447Z,112.30
2023-01-29T06:01:37.314Z,123.60
2023-01-29T06:02:38.012Z,122.00
2023-01-29T06:03:38.945Z,116.10
2023-01-29T06:04:39.654Z,118.00
2023-01-29T06:05:40.364Z,116.40
2023-01-29T06:06:41.080Z,115.40
2023-01-29T06:07:43.743Z,112.70
2023-01-29T06:08:42.429Z,113.70
2023-01-29T06:09:43.133Z,116.40
2023-01-29T06:10:43.845Z,114.90
2023-01-29T06:11:44.545Z,110.40
2023-01-29T06:12:45.268Z,115.20
2023-01-29T06:13:46.448Z,110.00
2023-01-29T06:14:46.657Z,109.80
2023-01-29T06:15:47.370Z,112.30
2023-01-29T06:16:48.051Z,112.60
2023-01-29T06:17:48.759Z,111.10
2023-01-29T06:18:49.935Z,112.40
2023-01-29T06:19:50.151Z,110.60
2023-01-29T06:20:50.852Z,106.90
2023-01-29T06:21:51.556Z,106.30
2023-01-29T06:22:52.267Z,107.20
2023-01-29T06:23:53.491Z,105.30
2023-01-29T06:24:53.797Z,101.90
2023-01-29T06:25:54.491Z,111.30
2023-01-29T06:26:55.200Z,103.50
2023-01-29T06:27:59.151Z,101.50
2023-01-29T06:28:56.942Z,104.80
2023-01-29T06:29:57.213Z,110.60
2023-01-29T06:31:01.293Z,108.90
2023-01-29T06:31:59.595Z,106.10
2023-01-29T06:32:59.282Z,105.30
2023-01-29T06:34:00.000Z,104.00
2023-01-29T06:35:00.709Z,101.00
2023-01-29T06:36:01.414Z,102.00
2023-01-29T06:37:02.144Z,105.10
2023-01-29T06:38:02.845Z,99.80
2023-01-29T06:39:03.561Z,104.80
2023-01-29T06:40:04.281Z,99.10
2023-01-29T06:41:04.992Z,109.10
2023-01-29T06:42:05.702Z,103.00
2023-01-29T06:43:06.407Z,100.00
2023-01-29T06:44:07.435Z,103.60
2023-01-29T06:45:07.655Z,101.90
2023-01-29T06:46:08.391Z,101.00
2023-01-29T06:47:09.069Z,100.80
2023-01-29T06:48:09.780Z,103.20
2023-01-29T06:49:10.937Z,103.10
2023-01-29T06:50:11.148Z,105.00
2023-01-29T06:51:11.916Z,107.10
2023-01-29T06:52:12.626Z,98.00
2023-01-29T06:53:13.347Z,104.10
2023-01-29T06:54:14.430Z,104.70
2023-01-29T06:55:14.641Z,104.50
2023-01-29T06:56:15.361Z,101.90
2023-01-29T06:57:16.084Z,101.40
2023-01-29T06:58:16.769Z,101.10
2023-01-29T06:59:17.933Z,98.60
2023-01-29T07:00:18.443Z,100.40
2023-01-29T07:01:34.605Z,104.60
2023-01-29T07:02:20.417Z,100.90
2023-01-29T07:03:20.064Z,106.00
2023-01-29T07:04:20.788Z,99.60
2023-01-29T07:05:21.497Z,103.40
2023-01-29T07:06:22.200Z,99.30
2023-01-29T07:07:22.908Z,98.70
2023-01-29T07:08:23.623Z,108.90
2023-01-29T07:09:24.434Z,103.00
2023-01-29T07:10:25.154Z,96.80
2023-01-29T07:11:25.864Z,102.60
2023-01-29T07:12:26.591Z,99.80
2023-01-29T07:13:27.282Z,102.00
2023-01-29T07:14:28.434Z,101.00
2023-01-29T07:15:28.660Z,100.50
2023-01-29T07:16:29.348Z,102.20
2023-01-29T07:17:30.033Z,100.60
2023-01-29T07:18:30.748Z,101.60
2023-01-29T07:19:31.937Z,97.80
2023-01-29T07:20:32.157Z,101.10
2023-01-29T07:21:32.860Z,103.20
2023-01-29T07:22:33.569Z,98.80
2023-01-29T07:23:34.281Z,99.20
2023-01-29T07:24:35.442Z,94.00
2023-01-29T07:25:35.645Z,99.40
2023-01-29T07:26:36.360Z,100.90
2023-01-29T07:27:37.064Z,98.60
2023-01-29T07:28:37.770Z,99.40
2023-01-29T07:29:38.495Z,96.60
2023-01-29T07:30:39.223Z,96.70
2023-01-29T07:31:39.972Z,99.00
2023-01-29T07:32:40.706Z,96.50
2023-01-29T07:33:41.402Z,98.60
2023-01-29T07:34:42.429Z,94.00
2023-01-29T07:35:42.641Z,99.20
2023-01-29T07:36:43.349Z,95.10
2023-01-29T07:37:44.077Z,97.80
2023-01-29T07:38:44.780Z,95.30
2023-01-29T07:39:45.617Z,100.20
2023-01-29T07:40:46.323Z,99.00
2023-01-29T07:41:47.027Z,98.30
2023-01-29T07:42:47.759Z,95.90
2023-01-29T07:43:48.517Z,93.00
2023-01-29T07:44:49.230Z,98.10
2023-01-29T07:45:50.015Z,92.10
2023-01-29T07:46:50.658Z,100.40
2023-01-29T07:47:51.370Z,92.50
2023-01-29T07:48:52.074Z,96.60
2023-01-29T07:49:52.931Z,94.40
2023-01-29T07:50:53.686Z,96.60
2023-01-29T07:51:54.389Z,94.80
2023-01-29T07:52:55.096Z,91.10
2023-01-29T07:53:55.808Z,90.70
2023-01-29T07:54:56.533Z,95.20
2023-01-29T07:55:57.280Z,88.80
2023-01-29T07:56:57.997Z,92.40
2023-01-29T07:57:58.728Z,93.60
2023-01-29T07:58:59.396Z,90.00
2023-01-29T08:00:00.431Z,93.90
2023-01-29T08:01:00.736Z,90.40
2023-01-29T08:02:01.487Z,93.40
2023-01-29T08:03:02.152Z,93.60
2023-01-29T08:04:02.863Z,99.60
2023-01-29T08:05:03.586Z,94.10
2023-01-29T08:06:04.308Z,92.10
2023-01-29T08:07:05.007Z,96.00
2023-01-29T08:08:07.690Z,90.90
2023-01-29T08:09:06.583Z,96.60
2023-01-29T08:10:07.304Z,93.50
2023-01-29T08:11:08.008Z,92.40
2023-01-29T08:12:08.716Z,92.60
2023-01-29T08:13:09.497Z,90.20
2023-01-29T08:14:10.152Z,94.90
2023-01-29T08:15:10.878Z,90.90
2023-01-29T08:16:11.789Z,92.80
2023-01-29T08:17:12.161Z,93.00
2023-01-29T08:18:12.869Z,93.70
2023-01-29T08:19:13.573Z,93.30
2023-01-29T08:20:14.292Z,91.50
2023-01-29T08:21:15.007Z,89.90
2023-01-29T08:22:15.707Z,91.20
2023-01-29T08:23:16.475Z,95.30
2023-01-29T08:24:17.261Z,93.10
2023-01-29T08:25:18.002Z,94.00
2023-01-29T08:26:18.706Z,96.60
2023-01-29T08:27:19.417Z,93.30
2023-01-29T08:28:20.122Z,90.10
2023-01-29T08:29:20.836Z,92.80
2023-01-29T08:30:21.937Z,95.40
2023-01-29T08:31:22.368Z,96.50
2023-01-29T08:32:23.099Z,95.20
2023-01-29T08:33:38.042Z,89.60
2023-01-29T08:34:25.422Z,91.30
2023-01-29T08:35:25.165Z,91.30
2023-01-29T08:36:25.840Z,96.10
2023-01-29T08:37:26.560Z,94.40
2023-01-29T08:38:27.263Z,96.30
2023-01-29T08:39:27.982Z,90.00
2023-01-29T08:40:28.825Z,97.10
2023-01-29T08:41:29.473Z,92.30
2023-01-29T08:42:30.185Z,93.80
2023-01-29T08:43:30.887Z,90.60
2023-01-29T08:44:31.601Z,90.20
2023-01-29T08:45:32.315Z,92.30
2023-01-29T08:46:33.038Z,95.80
2023-01-29T08:47:33.689Z,101.20
2023-01-29T08:48:34.407Z,93.00
2023-01-29T08:49:35.115Z,99.30
2023-01-29T08:50:35.825Z,95.70
2023-01-29T08:51:36.527Z,98.10
2023-01-29T08:52:37.245Z,91.80
2023-01-29T08:53:37.940Z,93.30
2023-01-29T08:54:38.652Z,87.60
2023-01-29T08:55:39.369Z,95.50
2023-01-29T08:56:40.085Z,92.90
2023-01-29T08:57:40.780Z,94.70
2023-01-29T08:58:41.488Z,99.70
2023-01-29T08:59:42.206Z,94.00
2023-01-29T09:00:42.921Z,93.20
2023-01-29T09:01:43.650Z,95.50
2023-01-29T09:02:44.346Z,92.80
2023-01-29T09:03:45.002Z,94.80
2023-01-29T09:04:45.716Z,94.10
2023-01-29T09:05:46.445Z,99.60
2023-01-29T09:06:47.156Z,99.80
2023-01-29T09:07:47.871Z,93.70
2023-01-29T09:08:48.569Z,97.40
2023-01-29T09:09:49.279Z,93.10
2023-01-29T09:10:50.451Z,90.40
2023-01-29T09:11:50.641Z,96.00
2023-01-29T09:12:51.352Z,90.80
2023-01-29T09:13:52.067Z,100.20
2023-01-29T09:14:52.775Z,99.30
2023-01-29T09:15:53.933Z,90.00
2023-01-29T09:16:54.208Z,91.50
2023-01-29T09:17:54.902Z,98.50
2023-01-29T09:18:55.599Z,98.50
2023-01-29T09:19:56.322Z,90.00
2023-01-29T09:20:57.433Z,92.90
2023-01-29T09:21:57.639Z,87.50
2023-01-29T09:22:58.350Z,95.50
2023-01-29T09:23:59.059Z,95.10
2023-01-29T09:24:59.780Z,93.00
2023-01-29T09:26:00.488Z,92.80
2023-01-29T09:27:01.193Z,97.10
2023-01-29T09:28:01.908Z,97.70
2023-01-29T09:29:02.610Z,89.30
2023-01-29T09:30:03.316Z,98.80
2023-01-29T09:31:04.669Z,90.10
2023-01-29T09:32:04.859Z,94.90
2023-01-29T09:33:05.497Z,96.40
2023-01-29T09:34:06.207Z,99.30
2023-01-29T09:35:06.917Z,99.20
2023-01-29T09:36:07.628Z,95.70
2023-01-29T09:37:08.346Z,91.00
2023-01-29T09:38:09.063Z,93.40
2023-01-29T09:39:09.778Z,96.90
2023-01-29T09:40:10.490Z,90.50
2023-01-29T09:41:11.431Z,90.90
2023-01-29T09:42:12.149Z,97.20
2023-01-29T09:43:12.858Z,90.60
2023-01-29T09:44:13.569Z,94.20
2023-01-29T09:45:14.570Z,94.80
2023-01-29T09:46:14.973Z,93.80
2023-01-29T09:47:15.660Z,92.10
2023-01-29T09:48:16.319Z,89.70
2023-01-29T09:49:17.028Z,93.10
2023-01-29T09:50:19.231Z,94.40
2023-01-29T09:51:18.433Z,92.60
2023-01-29T09:52:19.163Z,88.30
2023-01-29T09:53:19.856Z,95.80
2023-01-29T09:54:20.557Z,97.20
2023-01-29T09:55:21.273Z,96.80
2023-01-29T09:56:22.029Z,95.30
2023-01-29T09:57:22.688Z,93.50
2023-01-29T09:58:23.395Z,89.80
2023-01-29T09:59:24.106Z,89.90
2023-01-29T10:00:24.828Z,90.90
2023-01-29T10:01:25.994Z,90.40
2023-01-29T10:02:26.964Z,90.90
2023-01-29T10:03:27.097Z,91.10
2023-01-29T10:04:27.895Z,94.00
2023-01-29T10:05:28.571Z,96.40
2023-01-29T10:06:29.463Z,89.10
2023-01-29T10:07:30.155Z,91.60
2023-01-29T10:08:30.878Z,89.50
2023-01-29T10:09:31.573Z,94.80
2023-01-29T10:10:32.283Z,91.00
2023-01-29T10:11:33.435Z,89.90
2023-01-29T10:12:33.659Z,91.80
2023-01-29T10:13:34.356Z,95.30
2023-01-29T10:14:35.074Z,91.70
2023-01-29T10:15:35.770Z,90.10
2023-01-29T10:16:36.564Z,89.70
2023-01-29T10:17:37.235Z,97.80
2023-01-29T10:18:37.862Z,97.10
2023-01-29T10:19:38.569Z,92.00
2023-01-29T10:20:39.277Z,96.20
2023-01-29T10:21:39.990Z,96.50
2023-01-29T10:22:40.696Z,95.10
2023-01-29T10:23:41.407Z,92.80
2023-01-29T10:24:42.129Z,94.80
2023-01-29T10:25:42.820Z,96.80
2023-01-29T10:26:43.602Z,90.30
2023-01-29T10:27:44.260Z,92.00
2023-01-29T10:28:44.970Z,100.10
2023-01-29T10:29:45.681Z,90.20
2023-01-29T10:30:46.548Z,91.30
2023-01-29T10:31:47.502Z,92.70
2023-01-29T10:32:48.225Z,90.70
2023-01-29T10:34:01.077Z,94.90
2023-01-29T10:34:50.527Z,95.10
2023-01-29T10:35:50.229Z,93.10
2023-01-29T10:36:51.436Z,92.40
2023-01-29T10:37:51.641Z,93.80
2023-01-29T10:38:52.348Z,91.30
2023-01-29T10:39:53.056Z,87.10
2023-01-29T10:40:53.765Z,89.90
2023-01-29T10:41:54.929Z,96.60
2023-01-29T10:42:55.137Z,85.70
2023-01-29T10:43:55.848Z,89.20
2023-01-29T10:44:56.557Z,89.70
2023-01-29T10:45:57.261Z,88.50
2023-01-29T10:46:57.984Z,88.30
2023-01-29T10:47:58.700Z,95.50
2023-01-29T10:48:59.369Z,86.60
2023-01-29T10:50:00.134Z,92.70
2023-01-29T10:51:00.800Z,89.10
2023-01-29T10:52:01.929Z,91.10
2023-01-29T10:53:02.140Z,92.00
2023-01-29T10:54:02.853Z,90.70
2023-01-29T10:55:03.562Z,90.80
2023-01-29T10:56:13.951Z,93.50
2023-01-29T10:57:05.930Z,91.60
2023-01-29T10:58:05.643Z,97.70
2023-01-29T10:59:06.357Z,89.40
2023-01-29T11:00:07.071Z,92.10
2023-01-29T11:01:07.784Z,95.00
2023-01-29T11:02:08.929Z,88.70
2023-01-29T11:03:12.585Z,89.10
2023-01-29T11:04:10.746Z,91.20
2023-01-29T11:05:10.459Z,94.80
2023-01-29T11:06:11.165Z,91.10
2023-01-29T11:07:11.943Z,88.90
2023-01-29T11:08:12.650Z,87.60
2023-01-29T11:09:13.365Z,86.40
2023-01-29T11:10:14.539Z,93.20
2023-01-29T11:11:15.036Z,85.40
2023-01-29T11:12:15.935Z,90.80
2023-01-29T11:13:16.642Z,92.10
2023-01-29T11:14:17.348Z,90.10
2023-01-29T11:15:18.063Z,99.50
2023-01-29T11:16:18.768Z,88.00
2023-01-29T11:17:19.984Z,96.20
2023-01-29T11:18:20.181Z,87.10
2023-01-29T11:19:20.866Z,85.70
2023-01-29T11:20:21.590Z,89.50
2023-01-29T11:21:22.293Z,89.20
2023-01-29T11:22:23.429Z,91.20
2023-01-29T11:23:23.639Z,89.70
2023-01-29T11:24:24.381Z,92.50
2023-01-29T11:25:25.088Z,91.30
2023-01-29T11:26:25.842Z,87.60
2023-01-29T11:27:26.930Z,92.40
2023-01-29T11:28:27.142Z,93.70
2023-01-29T11:29:28.170Z,95.60
2023-01-29T11:30:28.819Z,87.90
2023-01-29T11:31:29.613Z,94.30
2023-01-29T11:32:30.431Z,88.30
2023-01-29T11:33:31.158Z,95.40
2023-01-29T11:34:31.816Z,89.00
2023-01-29T11:35:32.528Z,93.90
2023-01-29T11:36:33.247Z,91.40
2023-01-29T11:37:34.433Z,88.40
2023-01-29T11:38:34.640Z,93.60
2023-01-29T11:39:35.348Z,91.80
2023-01-29T11:40:36.055Z,90.10
2023-01-29T11:41:36.762Z,92.40
2023-01-29T11:42:37.488Z,90.90
2023-01-29T11:43:38.192Z,93.80
2023-01-29T11:44:38.899Z,91.90
2023-01-29T11:45:39.616Z,91.10
2023-01-29T11:46:40.386Z,92.50
2023-01-29T11:47:41.436Z,88.10
2023-01-29T11:48:41.661Z,88.80
2023-01-29T11:49:42.329Z,87.50
2023-01-29T11:50:43.028Z,91.40
2023-01-29T11:51:43.738Z,91.50
2023-01-29T11:52:44.457Z,88.90
2023-01-29T11:53:45.167Z,90.40
2023-01-29T11:54:45.860Z,86.10
2023-01-29T11:55:50.875Z,92.10
2023-01-29T11:56:47.255Z,82.70
2023-01-29T11:57:48.479Z,88.30
2023-01-29T11:58:48.651Z,86.80
2023-01-29T11:59:49.365Z,89.30
2023-01-29T12:00:50.067Z,85.80
2023-01-29T12:01:50.778Z,86.70
2023-01-29T12:02:51.491Z,87.00
2023-01-29T12:03:52.312Z,86.90
2023-01-29T12:04:52.980Z,86.70
2023-01-29T12:05:54.456Z,87.40
2023-01-29T12:06:54.657Z,85.00
2023-01-29T12:07:55.445Z,84.80
2023-01-29T12:08:56.152Z,86.50
2023-01-29T12:09:56.866Z,81.20
2023-01-29T12:10:57.570Z,83.70
2023-01-29T12:11:58.281Z,87.00
2023-01-29T12:12:59.431Z,85.40
2023-01-29T12:13:59.657Z,85.70
2023-01-29T12:15:00.346Z,86.30
2023-01-29T12:16:01.092Z,83.10
2023-01-29T12:17:01.761Z,86.80
2023-01-29T12:18:02.943Z,84.40
2023-01-29T12:19:03.170Z,85.70
2023-01-29T12:20:03.816Z,83.20
2023-01-29T12:21:04.528Z,88.10
2023-01-29T12:22:05.239Z,82.00
2023-01-29T12:23:05.965Z,81.40
2023-01-29T12:24:06.803Z,84.90
2023-01-29T12:25:07.495Z,82.20
2023-01-29T12:26:08.305Z,82.70
2023-01-29T12:27:08.999Z,91.60
2023-01-29T12:28:09.775Z,87.50
2023-01-29T12:29:10.424Z,79.00
2023-01-29T12:30:11.128Z,80.60
2023-01-29T12:31:11.868Z,87.50
2023-01-29T12:32:12.547Z,79.30
2023-01-29T12:33:13.432Z,84.10
2023-01-29T12:34:14.155Z,77.30
2023-01-29T12:35:14.818Z,78.60
2023-01-29T12:36:15.523Z,83.10
2023-01-29T12:37:16.230Z,78.90
2023-01-29T12:38:17.432Z,84.20
2023-01-29T12:39:17.643Z,78.20
2023-01-29T12:40:18.722Z,77.90
2023-01-29T12:41:19.039Z,79.60
2023-01-29T12:42:19.749Z,84.70
2023-01-29T12:43:20.930Z,78.10
2023-01-29T12:44:21.144Z,77.40
2023-01-29T12:45:21.859Z,78.10
2023-01-29T12:46:22.572Z,75.80
2023-01-29T12:47:23.283Z,74.80
2023-01-29T12:48:24.437Z,79.00